Terminal Aerodrome Forecast
Issued by NWS Boise, ID

Home | Current Version | Previous Version | Text Only | Print | Product List | Glossary On
Versions: 1 2 3 4 5 6 7 8 9 10 11 12 13 14 15 16 17 18 19 20 21 22 23 24 25 26
000
FTUS45 KBOI 022001 AAA
TAFBNO
TAF AMD
KBNO 022001Z 0220/0318 16010G17KT P6SM SKC
     FM030200 28015G25KT P6SM BKN200
     FM031000 26010KT P6SM SCT200=

USA.gov is the U.S. government's official web portal to all federal, state and local government web resources and services.